sensor_id;sensor_type;location;lat;lon;timestamp;P1;durP1;ratioP1;P2;durP2;ratioP2
27728;SDS011;15126;42.186;24.340;2023-05-10T00:02:01;11.33;;;8.23;;
27728;SDS011;15126;42.186;24.340;2023-05-10T00:04:29;8.90;;;8.03;;
27728;SDS011;15126;42.186;24.340;2023-05-10T00:06:56;8.70;;;7.90;;
27728;SDS011;15126;42.186;24.340;2023-05-10T00:09:23;9.27;;;8.37;;
27728;SDS011;15126;42.186;24.340;2023-05-10T00:11:50;8.93;;;8.13;;
27728;SDS011;15126;42.186;24.340;2023-05-10T00:14:16;7.93;;;7.23;;
27728;SDS011;15126;42.186;24.340;2023-05-10T00:16:43;11.60;;;8.13;;
27728;SDS011;15126;42.186;24.340;2023-05-10T00:19:10;12.70;;;7.93;;
27728;SDS011;15126;42.186;24.340;2023-05-10T00:21:39;10.83;;;8.73;;
27728;SDS011;15126;42.186;24.340;2023-05-10T00:24:05;10.47;;;8.23;;
27728;SDS011;15126;42.186;24.340;2023-05-10T00:26:32;11.77;;;8.57;;
27728;SDS011;15126;42.186;24.340;2023-05-10T00:28:59;10.23;;;9.07;;
27728;SDS011;15126;42.186;24.340;2023-05-10T00:31:26;11.93;;;9.53;;
27728;SDS011;15126;42.186;24.340;2023-05-10T00:33:53;9.67;;;8.67;;
27728;SDS011;15126;42.186;24.340;2023-05-10T00:36:21;13.13;;;9.73;;
27728;SDS011;15126;42.186;24.340;2023-05-10T00:38:49;13.93;;;10.83;;
27728;SDS011;15126;42.186;24.340;2023-05-10T00:41:16;11.70;;;10.47;;
27728;SDS011;15126;42.186;24.340;2023-05-10T00:43:43;12.87;;;11.00;;
27728;SDS011;15126;42.186;24.340;2023-05-10T00:46:09;11.03;;;10.03;;
27728;SDS011;15126;42.186;24.340;2023-05-10T00:48:37;10.10;;;9.07;;
27728;SDS011;15126;42.186;24.340;2023-05-10T00:51:04;14.70;;;10.83;;
27728;SDS011;15126;42.186;24.340;2023-05-10T00:53:31;12.77;;;11.43;;
27728;SDS011;15126;42.186;24.340;2023-05-10T00:56:00;11.53;;;10.33;;
27728;SDS011;15126;42.186;24.340;2023-05-10T00:58:28;11.87;;;10.73;;
27728;SDS011;15126;42.186;24.340;2023-05-10T01:00:56;14.87;;;12.10;;
27728;SDS011;15126;42.186;24.340;2023-05-10T01:03:24;12.40;;;10.87;;
27728;SDS011;15126;42.186;24.340;2023-05-10T01:05:51;16.27;;;11.77;;
27728;SDS011;15126;42.186;24.340;2023-05-10T01:08:18;11.80;;;10.17;;
27728;SDS011;15126;42.186;24.340;2023-05-10T01:10:45;14.23;;;11.13;;
27728;SDS011;15126;42.186;24.340;2023-05-10T01:13:15;12.70;;;10.93;;
27728;SDS011;15126;42.186;24.340;2023-05-10T01:15:56;15.17;;;11.30;;
27728;SDS011;15126;42.186;24.340;2023-05-10T01:18:23;16.27;;;11.83;;
27728;SDS011;15126;42.186;24.340;2023-05-10T01:20:54;15.33;;;13.53;;
27728;SDS011;15126;42.186;24.340;2023-05-10T01:23:42;12.83;;;11.63;;
27728;SDS011;15126;42.186;24.340;2023-05-10T01:26:34;14.77;;;12.23;;
27728;SDS011;15126;42.186;24.340;2023-05-10T01:29:30;11.93;;;10.77;;
27728;SDS011;15126;42.186;24.340;2023-05-10T01:32:23;14.17;;;10.07;;
27728;SDS011;15126;42.186;24.340;2023-05-10T01:34:58;13.20;;;10.50;;
27728;SDS011;15126;42.186;24.340;2023-05-10T01:37:31;10.77;;;9.73;;
27728;SDS011;15126;42.186;24.340;2023-05-10T01:40:11;9.67;;;8.70;;
27728;SDS011;15126;42.186;24.340;2023-05-10T01:42:46;12.83;;;10.87;;
27728;SDS011;15126;42.186;24.340;2023-05-10T01:45:18;13.37;;;9.30;;
27728;SDS011;15126;42.186;24.340;2023-05-10T01:47:59;13.47;;;9.23;;
27728;SDS011;15126;42.186;24.340;2023-05-10T01:50:31;12.43;;;9.80;;
27728;SDS011;15126;42.186;24.340;2023-05-10T01:53:00;13.13;;;9.40;;
27728;SDS011;15126;42.186;24.340;2023-05-10T01:55:29;17.80;;;11.77;;
27728;SDS011;15126;42.186;24.340;2023-05-10T01:58:00;13.77;;;9.57;;
27728;SDS011;15126;42.186;24.340;2023-05-10T02:00:30;11.67;;;10.57;;
27728;SDS011;15126;42.186;24.340;2023-05-10T02:03:00;12.07;;;9.93;;
27728;SDS011;15126;42.186;24.340;2023-05-10T02:05:32;16.23;;;11.50;;
27728;SDS011;15126;42.186;24.340;2023-05-10T02:08:00;15.00;;;12.40;;
27728;SDS011;15126;42.186;24.340;2023-05-10T02:10:29;13.73;;;11.00;;
27728;SDS011;15126;42.186;24.340;2023-05-10T02:12:58;14.20;;;11.47;;
27728;SDS011;15126;42.186;24.340;2023-05-10T02:15:26;17.53;;;11.90;;
27728;SDS011;15126;42.186;24.340;2023-05-10T02:17:55;13.53;;;11.27;;
27728;SDS011;15126;42.186;24.340;2023-05-10T02:20:24;12.07;;;10.87;;
27728;SDS011;15126;42.186;24.340;2023-05-10T02:22:54;12.00;;;10.80;;
27728;SDS011;15126;42.186;24.340;2023-05-10T02:25:23;11.40;;;10.30;;
27728;SDS011;15126;42.186;24.340;2023-05-10T02:27:53;14.17;;;11.00;;
27728;SDS011;15126;42.186;24.340;2023-05-10T02:30:22;11.17;;;10.10;;
27728;SDS011;15126;42.186;24.340;2023-05-10T02:32:49;11.83;;;10.07;;
27728;SDS011;15126;42.186;24.340;2023-05-10T02:35:17;17.13;;;11.67;;
27728;SDS011;15126;42.186;24.340;2023-05-10T02:37:47;13.60;;;12.20;;
27728;SDS011;15126;42.186;24.340;2023-05-10T02:40:15;17.90;;;11.73;;
27728;SDS011;15126;42.186;24.340;2023-05-10T02:42:43;13.60;;;11.00;;
27728;SDS011;15126;42.186;24.340;2023-05-10T02:45:14;13.03;;;11.73;;
27728;SDS011;15126;42.186;24.340;2023-05-10T02:47:43;11.70;;;10.57;;
27728;SDS011;15126;42.186;24.340;2023-05-10T02:50:10;17.23;;;14.30;;
27728;SDS011;15126;42.186;24.340;2023-05-10T02:52:39;14.67;;;11.33;;
27728;SDS011;15126;42.186;24.340;2023-05-10T02:55:11;13.23;;;11.83;;
27728;SDS011;15126;42.186;24.340;2023-05-10T02:57:41;17.33;;;11.40;;
27728;SDS011;15126;42.186;24.340;2023-05-10T03:00:12;14.53;;;11.00;;
27728;SDS011;15126;42.186;24.340;2023-05-10T03:02:39;11.33;;;10.13;;
27728;SDS011;15126;42.186;24.340;2023-05-10T03:05:07;12.23;;;9.87;;
27728;SDS011;15126;42.186;24.340;2023-05-10T03:07:34;14.27;;;11.00;;
27728;SDS011;15126;42.186;24.340;2023-05-10T03:10:02;14.73;;;9.73;;
27728;SDS011;15126;42.186;24.340;2023-05-10T03:12:33;11.60;;;9.40;;
27728;SDS011;15126;42.186;24.340;2023-05-10T03:15:15;11.23;;;10.27;;
27728;SDS011;15126;42.186;24.340;2023-05-10T03:17:54;10.37;;;9.27;;
27728;SDS011;15126;42.186;24.340;2023-05-10T03:20:29;11.23;;;10.10;;
27728;SDS011;15126;42.186;24.340;2023-05-10T03:23:00;11.07;;;10.13;;
27728;SDS011;15126;42.186;24.340;2023-05-10T03:25:31;12.90;;;10.73;;
27728;SDS011;15126;42.186;24.340;2023-05-10T03:28:00;15.63;;;11.03;;
27728;SDS011;15126;42.186;24.340;2023-05-10T03:30:28;12.30;;;9.90;;
27728;SDS011;15126;42.186;24.340;2023-05-10T03:32:55;13.73;;;10.03;;
27728;SDS011;15126;42.186;24.340;2023-05-10T03:35:22;13.33;;;11.07;;
27728;SDS011;15126;42.186;24.340;2023-05-10T03:37:50;11.60;;;10.33;;
27728;SDS011;15126;42.186;24.340;2023-05-10T03:40:17;12.77;;;11.60;;
27728;SDS011;15126;42.186;24.340;2023-05-10T03:42:44;12.27;;;10.60;;
27728;SDS011;15126;42.186;24.340;2023-05-10T03:45:12;14.70;;;11.60;;
27728;SDS011;15126;42.186;24.340;2023-05-10T03:47:39;11.90;;;10.23;;
27728;SDS011;15126;42.186;24.340;2023-05-10T03:50:06;11.50;;;10.30;;
27728;SDS011;15126;42.186;24.340;2023-05-10T03:52:33;11.33;;;10.13;;
27728;SDS011;15126;42.186;24.340;2023-05-10T03:55:00;20.77;;;15.73;;
27728;SDS011;15126;42.186;24.340;2023-05-10T03:57:28;16.33;;;11.87;;
27728;SDS011;15126;42.186;24.340;2023-05-10T03:59:55;14.57;;;11.93;;
27728;SDS011;15126;42.186;24.340;2023-05-10T04:02:23;13.57;;;11.23;;
27728;SDS011;15126;42.186;24.340;2023-05-10T04:04:50;14.00;;;11.93;;
27728;SDS011;15126;42.186;24.340;2023-05-10T04:07:17;13.63;;;12.33;;
27728;SDS011;15126;42.186;24.340;2023-05-10T04:09:44;15.50;;;12.13;;
27728;SDS011;15126;42.186;24.340;2023-05-10T04:12:11;13.97;;;12.47;;
27728;SDS011;15126;42.186;24.340;2023-05-10T04:14:38;12.60;;;11.37;;
27728;SDS011;15126;42.186;24.340;2023-05-10T04:17:04;14.47;;;11.77;;
27728;SDS011;15126;42.186;24.340;2023-05-10T04:19:33;13.37;;;11.47;;
27728;SDS011;15126;42.186;24.340;2023-05-10T04:22:00;16.47;;;12.60;;
27728;SDS011;15126;42.186;24.340;2023-05-10T04:24:28;11.10;;;10.00;;
27728;SDS011;15126;42.186;24.340;2023-05-10T04:26:55;14.17;;;11.27;;
27728;SDS011;15126;42.186;24.340;2023-05-10T04:29:22;12.17;;;10.90;;
27728;SDS011;15126;42.186;24.340;2023-05-10T04:31:49;12.53;;;11.30;;
27728;SDS011;15126;42.186;24.340;2023-05-10T04:34:16;14.23;;;12.77;;
27728;SDS011;15126;42.186;24.340;2023-05-10T04:36:44;15.87;;;12.73;;
27728;SDS011;15126;42.186;24.340;2023-05-10T04:39:11;14.20;;;12.83;;
27728;SDS011;15126;42.186;24.340;2023-05-10T04:41:41;14.13;;;12.83;;
27728;SDS011;15126;42.186;24.340;2023-05-10T04:44:07;16.43;;;12.70;;
27728;SDS011;15126;42.186;24.340;2023-05-10T04:46:34;14.13;;;12.57;;
27728;SDS011;15126;42.186;24.340;2023-05-10T04:49:01;12.33;;;11.13;;
27728;SDS011;15126;42.186;24.340;2023-05-10T04:51:28;15.13;;;11.33;;
27728;SDS011;15126;42.186;24.340;2023-05-10T04:53:57;12.20;;;10.90;;
27728;SDS011;15126;42.186;24.340;2023-05-10T04:56:23;12.70;;;10.77;;
27728;SDS011;15126;42.186;24.340;2023-05-10T04:58:50;11.93;;;10.03;;
27728;SDS011;15126;42.186;24.340;2023-05-10T05:01:17;15.07;;;11.20;;
27728;SDS011;15126;42.186;24.340;2023-05-10T05:03:44;11.63;;;10.50;;
27728;SDS011;15126;42.186;24.340;2023-05-10T05:06:11;11.07;;;9.97;;
27728;SDS011;15126;42.186;24.340;2023-05-10T05:08:38;11.13;;;10.17;;
27728;SDS011;15126;42.186;24.340;2023-05-10T05:11:07;14.83;;;11.37;;
27728;SDS011;15126;42.186;24.340;2023-05-10T05:13:34;11.10;;;9.87;;
27728;SDS011;15126;42.186;24.340;2023-05-10T05:16:01;13.40;;;10.97;;
27728;SDS011;15126;42.186;24.340;2023-05-10T05:18:28;12.37;;;10.87;;
27728;SDS011;15126;42.186;24.340;2023-05-10T05:20:55;11.33;;;10.23;;
27728;SDS011;15126;42.186;24.340;2023-05-10T05:23:22;12.90;;;11.47;;
27728;SDS011;15126;42.186;24.340;2023-05-10T05:25:51;13.07;;;11.73;;
27728;SDS011;15126;42.186;24.340;2023-05-10T05:28:19;13.17;;;11.23;;
27728;SDS011;15126;42.186;24.340;2023-05-10T05:30:46;12.90;;;11.80;;
27728;SDS011;15126;42.186;24.340;2023-05-10T05:33:13;12.33;;;10.53;;
27728;SDS011;15126;42.186;24.340;2023-05-10T05:35:40;12.23;;;11.10;;
27728;SDS011;15126;42.186;24.340;2023-05-10T05:38:08;13.80;;;12.33;;
27728;SDS011;15126;42.186;24.340;2023-05-10T05:40:36;14.43;;;12.83;;
27728;SDS011;15126;42.186;24.340;2023-05-10T05:43:03;16.93;;;13.50;;
27728;SDS011;15126;42.186;24.340;2023-05-10T05:45:31;18.57;;;12.43;;
27728;SDS011;15126;42.186;24.340;2023-05-10T05:47:58;14.77;;;13.27;;
27728;SDS011;15126;42.186;24.340;2023-05-10T05:50:24;15.43;;;13.87;;
27728;SDS011;15126;42.186;24.340;2023-05-10T05:52:51;15.57;;;14.00;;
27728;SDS011;15126;42.186;24.340;2023-05-10T05:55:18;16.63;;;13.27;;
27728;SDS011;15126;42.186;24.340;2023-05-10T05:57:45;18.20;;;13.60;;
27728;SDS011;15126;42.186;24.340;2023-05-10T06:00:12;17.57;;;14.63;;
27728;SDS011;15126;42.186;24.340;2023-05-10T06:02:41;14.37;;;13.07;;
27728;SDS011;15126;42.186;24.340;2023-05-10T06:05:08;14.90;;;13.47;;
27728;SDS011;15126;42.186;24.340;2023-05-10T06:07:35;14.67;;;13.20;;
27728;SDS011;15126;42.186;24.340;2023-05-10T06:10:02;18.03;;;15.20;;
27728;SDS011;15126;42.186;24.340;2023-05-10T06:12:29;20.70;;;15.83;;
27728;SDS011;15126;42.186;24.340;2023-05-10T06:14:57;17.30;;;14.93;;
27728;SDS011;15126;42.186;24.340;2023-05-10T06:17:23;15.10;;;13.80;;
27728;SDS011;15126;42.186;24.340;2023-05-10T06:19:52;16.13;;;14.07;;
27728;SDS011;15126;42.186;24.340;2023-05-10T06:22:19;17.23;;;14.93;;
27728;SDS011;15126;42.186;24.340;2023-05-10T06:24:47;19.13;;;15.03;;
27728;SDS011;15126;42.186;24.340;2023-05-10T06:27:14;20.13;;;15.50;;
27728;SDS011;15126;42.186;24.340;2023-05-10T06:29:42;14.57;;;13.10;;
27728;SDS011;15126;42.186;24.340;2023-05-10T06:32:09;14.80;;;12.83;;
27728;SDS011;15126;42.186;24.340;2023-05-10T06:34:36;15.27;;;13.67;;
27728;SDS011;15126;42.186;24.340;2023-05-10T06:37:04;14.90;;;13.10;;
27728;SDS011;15126;42.186;24.340;2023-05-10T06:39:30;14.83;;;13.37;;
27728;SDS011;15126;42.186;24.340;2023-05-10T06:41:57;15.63;;;14.00;;
27728;SDS011;15126;42.186;24.340;2023-05-10T06:44:24;17.63;;;15.67;;
27728;SDS011;15126;42.186;24.340;2023-05-10T06:46:51;20.47;;;15.70;;
27728;SDS011;15126;42.186;24.340;2023-05-10T06:49:20;16.77;;;15.13;;
27728;SDS011;15126;42.186;24.340;2023-05-10T06:51:47;16.57;;;14.90;;
27728;SDS011;15126;42.186;24.340;2023-05-10T06:54:15;20.40;;;15.73;;
27728;SDS011;15126;42.186;24.340;2023-05-10T06:56:42;17.50;;;15.70;;
27728;SDS011;15126;42.186;24.340;2023-05-10T06:59:09;17.83;;;15.63;;
27728;SDS011;15126;42.186;24.340;2023-05-10T07:01:37;17.07;;;15.27;;
27728;SDS011;15126;42.186;24.340;2023-05-10T07:04:04;19.87;;;16.13;;
27728;SDS011;15126;42.186;24.340;2023-05-10T07:06:32;17.10;;;15.53;;
27728;SDS011;15126;42.186;24.340;2023-05-10T07:08:59;17.20;;;15.40;;
27728;SDS011;15126;42.186;24.340;2023-05-10T07:11:27;17.30;;;15.40;;
27728;SDS011;15126;42.186;24.340;2023-05-10T07:13:54;16.70;;;14.87;;
27728;SDS011;15126;42.186;24.340;2023-05-10T07:16:21;14.03;;;12.60;;
27728;SDS011;15126;42.186;24.340;2023-05-10T07:18:48;15.23;;;12.97;;
27728;SDS011;15126;42.186;24.340;2023-05-10T07:21:15;13.13;;;11.83;;
27728;SDS011;15126;42.186;24.340;2023-05-10T07:23:42;12.37;;;11.17;;
27728;SDS011;15126;42.186;24.340;2023-05-10T07:26:09;13.77;;;11.03;;
27728;SDS011;15126;42.186;24.340;2023-05-10T07:28:38;13.03;;;11.57;;
27728;SDS011;15126;42.186;24.340;2023-05-10T07:31:04;14.63;;;12.93;;
27728;SDS011;15126;42.186;24.340;2023-05-10T07:33:50;18.50;;;12.43;;
27728;SDS011;15126;42.186;24.340;2023-05-10T07:36:37;16.70;;;12.10;;
27728;SDS011;15126;42.186;24.340;2023-05-10T07:39:04;13.70;;;12.43;;
27728;SDS011;15126;42.186;24.340;2023-05-10T07:41:31;13.00;;;11.30;;
27728;SDS011;15126;42.186;24.340;2023-05-10T07:43:59;17.40;;;11.47;;
27728;SDS011;15126;42.186;24.340;2023-05-10T07:46:26;14.00;;;10.63;;
27728;SDS011;15126;42.186;24.340;2023-05-10T07:48:53;13.60;;;11.33;;
27728;SDS011;15126;42.186;24.340;2023-05-10T07:51:20;14.10;;;10.47;;
27728;SDS011;15126;42.186;24.340;2023-05-10T07:53:47;12.33;;;9.67;;
27728;SDS011;15126;42.186;24.340;2023-05-10T07:56:21;12.43;;;11.13;;
27728;SDS011;15126;42.186;24.340;2023-05-10T07:58:50;14.53;;;10.93;;
27728;SDS011;15126;42.186;24.340;2023-05-10T08:01:19;16.17;;;11.77;;
27728;SDS011;15126;42.186;24.340;2023-05-10T08:03:46;17.37;;;15.53;;
27728;SDS011;15126;42.186;24.340;2023-05-10T08:06:14;19.70;;;15.73;;
27728;SDS011;15126;42.186;24.340;2023-05-10T08:08:41;18.30;;;15.40;;
27728;SDS011;15126;42.186;24.340;2023-05-10T08:11:08;13.13;;;11.80;;
27728;SDS011;15126;42.186;24.340;2023-05-10T08:13:35;12.33;;;11.23;;
27728;SDS011;15126;42.186;24.340;2023-05-10T08:16:02;11.87;;;10.63;;
27728;SDS011;15126;42.186;24.340;2023-05-10T08:18:30;11.40;;;10.30;;
27728;SDS011;15126;42.186;24.340;2023-05-10T08:20:57;16.07;;;10.13;;
27728;SDS011;15126;42.186;24.340;2023-05-10T08:23:24;12.20;;;10.63;;
27728;SDS011;15126;42.186;24.340;2023-05-10T08:25:51;12.30;;;10.13;;
27728;SDS011;15126;42.186;24.340;2023-05-10T08:28:17;12.03;;;9.87;;
27728;SDS011;15126;42.186;24.340;2023-05-10T08:30:44;12.07;;;10.83;;
27728;SDS011;15126;42.186;24.340;2023-05-10T08:33:11;14.13;;;9.07;;
27728;SDS011;15126;42.186;24.340;2023-05-10T08:35:39;10.33;;;9.23;;
27728;SDS011;15126;42.186;24.340;2023-05-10T08:38:06;9.10;;;8.20;;
27728;SDS011;15126;42.186;24.340;2023-05-10T08:40:33;18.53;;;10.57;;
27728;SDS011;15126;42.186;24.340;2023-05-10T08:43:03;12.40;;;9.73;;
27728;SDS011;15126;42.186;24.340;2023-05-10T08:45:32;13.67;;;8.83;;
27728;SDS011;15126;42.186;24.340;2023-05-10T08:48:02;10.47;;;9.37;;
27728;SDS011;15126;42.186;24.340;2023-05-10T08:50:32;12.00;;;10.03;;
27728;SDS011;15126;42.186;24.340;2023-05-10T08:53:03;12.23;;;10.90;;
27728;SDS011;15126;42.186;24.340;2023-05-10T08:55:32;11.33;;;10.33;;
27728;SDS011;15126;42.186;24.340;2023-05-10T08:58:01;12.93;;;11.27;;
27728;SDS011;15126;42.186;24.340;2023-05-10T09:00:28;11.43;;;9.87;;
27728;SDS011;15126;42.186;24.340;2023-05-10T09:02:56;11.07;;;8.97;;
27728;SDS011;15126;42.186;24.340;2023-05-10T09:05:23;14.00;;;9.40;;
27728;SDS011;15126;42.186;24.340;2023-05-10T09:07:50;12.43;;;8.93;;
27728;SDS011;15126;42.186;24.340;2023-05-10T09:10:19;11.50;;;9.70;;
27728;SDS011;15126;42.186;24.340;2023-05-10T09:12:46;10.73;;;9.70;;
27728;SDS011;15126;42.186;24.340;2023-05-10T09:15:14;11.40;;;8.97;;
27728;SDS011;15126;42.186;24.340;2023-05-10T09:17:44;10.63;;;9.63;;
27728;SDS011;15126;42.186;24.340;2023-05-10T09:20:11;13.70;;;9.33;;
27728;SDS011;15126;42.186;24.340;2023-05-10T09:22:38;11.07;;;9.83;;
27728;SDS011;15126;42.186;24.340;2023-05-10T09:25:06;12.63;;;9.53;;
27728;SDS011;15126;42.186;24.340;2023-05-10T09:27:35;13.97;;;9.20;;
27728;SDS011;15126;42.186;24.340;2023-05-10T09:30:03;10.50;;;9.43;;
27728;SDS011;15126;42.186;24.340;2023-05-10T09:32:37;12.83;;;11.03;;
27728;SDS011;15126;42.186;24.340;2023-05-10T09:35:09;12.60;;;8.53;;
27728;SDS011;15126;42.186;24.340;2023-05-10T09:37:36;9.60;;;8.70;;
27728;SDS011;15126;42.186;24.340;2023-05-10T09:40:06;11.40;;;9.57;;
27728;SDS011;15126;42.186;24.340;2023-05-10T09:42:35;11.33;;;9.27;;
27728;SDS011;15126;42.186;24.340;2023-05-10T09:45:03;11.33;;;8.73;;
27728;SDS011;15126;42.186;24.340;2023-05-10T09:47:31;12.13;;;9.63;;
27728;SDS011;15126;42.186;24.340;2023-05-10T09:49:59;10.70;;;9.13;;
27728;SDS011;15126;42.186;24.340;2023-05-10T09:52:29;10.07;;;8.83;;
27728;SDS011;15126;42.186;24.340;2023-05-10T09:54:56;13.50;;;9.73;;
27728;SDS011;15126;42.186;24.340;2023-05-10T09:57:23;12.47;;;8.80;;
27728;SDS011;15126;42.186;24.340;2023-05-10T09:59:52;8.77;;;8.03;;
27728;SDS011;15126;42.186;24.340;2023-05-10T10:02:20;9.60;;;8.33;;
27728;SDS011;15126;42.186;24.340;2023-05-10T10:04:49;10.13;;;8.43;;
27728;SDS011;15126;42.186;24.340;2023-05-10T10:07:17;9.20;;;8.30;;
27728;SDS011;15126;42.186;24.340;2023-05-10T10:09:49;10.20;;;9.27;;
27728;SDS011;15126;42.186;24.340;2023-05-10T10:12:16;10.53;;;9.43;;
27728;SDS011;15126;42.186;24.340;2023-05-10T10:14:44;12.63;;;8.80;;
27728;SDS011;15126;42.186;24.340;2023-05-10T10:17:14;9.47;;;8.37;;
27728;SDS011;15126;42.186;24.340;2023-05-10T10:19:41;8.50;;;7.70;;
27728;SDS011;15126;42.186;24.340;2023-05-10T10:22:08;17.97;;;8.37;;
27728;SDS011;15126;42.186;24.340;2023-05-10T10:24:37;8.83;;;8.03;;
27728;SDS011;15126;42.186;24.340;2023-05-10T10:27:09;10.10;;;9.07;;
27728;SDS011;15126;42.186;24.340;2023-05-10T10:29:47;12.43;;;10.73;;
27728;SDS011;15126;42.186;24.340;2023-05-10T10:32:27;11.17;;;10.07;;
27728;SDS011;15126;42.186;24.340;2023-05-10T10:35:04;14.40;;;10.33;;
27728;SDS011;15126;42.186;24.340;2023-05-10T10:37:43;9.87;;;8.33;;
27728;SDS011;15126;42.186;24.340;2023-05-10T10:42:56;11.50;;;8.40;;
27728;SDS011;15126;42.186;24.340;2023-05-10T10:45:23;9.87;;;8.70;;
27728;SDS011;15126;42.186;24.340;2023-05-10T10:50:55;10.33;;;9.00;;
27728;SDS011;15126;42.186;24.340;2023-05-10T10:53:25;8.97;;;8.17;;
27728;SDS011;15126;42.186;24.340;2023-05-10T10:55:55;9.87;;;8.90;;
27728;SDS011;15126;42.186;24.340;2023-05-10T10:58:31;9.27;;;8.27;;
27728;SDS011;15126;42.186;24.340;2023-05-10T11:01:11;9.87;;;8.83;;
27728;SDS011;15126;42.186;24.340;2023-05-10T11:03:41;15.57;;;9.07;;
27728;SDS011;15126;42.186;24.340;2023-05-10T11:06:41;9.33;;;8.53;;
27728;SDS011;15126;42.186;24.340;2023-05-10T11:09:08;9.93;;;8.93;;
27728;SDS011;15126;42.186;24.340;2023-05-10T11:11:36;10.37;;;9.57;;
27728;SDS011;15126;42.186;24.340;2023-05-10T11:14:15;9.57;;;8.67;;
27728;SDS011;15126;42.186;24.340;2023-05-10T11:16:47;10.47;;;9.47;;
27728;SDS011;15126;42.186;24.340;2023-05-10T11:19:15;9.63;;;8.23;;
27728;SDS011;15126;42.186;24.340;2023-05-10T11:21:46;10.83;;;9.70;;
27728;SDS011;15126;42.186;24.340;2023-05-10T11:24:15;15.57;;;10.53;;
27728;SDS011;15126;42.186;24.340;2023-05-10T11:26:42;10.60;;;9.60;;
27728;SDS011;15126;42.186;24.340;2023-05-10T11:29:09;10.07;;;9.20;;
27728;SDS011;15126;42.186;24.340;2023-05-10T11:31:41;10.10;;;9.20;;
27728;SDS011;15126;42.186;24.340;2023-05-10T11:34:09;10.07;;;9.07;;
27728;SDS011;15126;42.186;24.340;2023-05-10T11:36:39;10.20;;;9.27;;
27728;SDS011;15126;42.186;24.340;2023-05-10T11:39:05;8.57;;;7.97;;
27728;SDS011;15126;42.186;24.340;2023-05-10T11:41:32;9.90;;;8.90;;
27728;SDS011;15126;42.186;24.340;2023-05-10T11:43:59;9.77;;;8.27;;
27728;SDS011;15126;42.186;24.340;2023-05-10T11:46:27;11.27;;;10.17;;
27728;SDS011;15126;42.186;24.340;2023-05-10T11:48:55;18.83;;;8.70;;
27728;SDS011;15126;42.186;24.340;2023-05-10T11:51:25;10.17;;;9.20;;
27728;SDS011;15126;42.186;24.340;2023-05-10T11:53:54;11.30;;;9.83;;
27728;SDS011;15126;42.186;24.340;2023-05-10T11:56:21;9.53;;;8.57;;
27728;SDS011;15126;42.186;24.340;2023-05-10T11:58:52;11.43;;;9.17;;
27728;SDS011;15126;42.186;24.340;2023-05-10T12:01:20;12.57;;;10.47;;
27728;SDS011;15126;42.186;24.340;2023-05-10T12:03:48;13.50;;;8.37;;
27728;SDS011;15126;42.186;24.340;2023-05-10T12:06:15;11.67;;;9.47;;
27728;SDS011;15126;42.186;24.340;2023-05-10T12:08:44;9.03;;;8.20;;
27728;SDS011;15126;42.186;24.340;2023-05-10T12:11:13;12.23;;;7.53;;
27728;SDS011;15126;42.186;24.340;2023-05-10T12:13:41;9.03;;;8.23;;
27728;SDS011;15126;42.186;24.340;2023-05-10T12:16:15;9.43;;;8.70;;
27728;SDS011;15126;42.186;24.340;2023-05-10T12:18:43;10.93;;;9.70;;
27728;SDS011;15126;42.186;24.340;2023-05-10T12:21:10;8.50;;;7.90;;
27728;SDS011;15126;42.186;24.340;2023-05-10T12:23:38;8.97;;;8.07;;
27728;SDS011;15126;42.186;24.340;2023-05-10T12:26:05;9.13;;;8.23;;
27728;SDS011;15126;42.186;24.340;2023-05-10T12:28:33;9.37;;;8.47;;
27728;SDS011;15126;42.186;24.340;2023-05-10T12:31:01;14.83;;;8.37;;
27728;SDS011;15126;42.186;24.340;2023-05-10T12:33:34;15.50;;;9.53;;
27728;SDS011;15126;42.186;24.340;2023-05-10T12:36:04;8.07;;;7.37;;
27728;SDS011;15126;42.186;24.340;2023-05-10T12:38:32;7.60;;;6.90;;
27728;SDS011;15126;42.186;24.340;2023-05-10T12:41:00;9.47;;;8.17;;
27728;SDS011;15126;42.186;24.340;2023-05-10T12:43:28;9.30;;;8.40;;
27728;SDS011;15126;42.186;24.340;2023-05-10T12:45:57;9.87;;;9.00;;
27728;SDS011;15126;42.186;24.340;2023-05-10T12:48:24;10.87;;;9.10;;
27728;SDS011;15126;42.186;24.340;2023-05-10T12:50:51;10.07;;;9.07;;
27728;SDS011;15126;42.186;24.340;2023-05-10T12:53:17;8.20;;;7.53;;
27728;SDS011;15126;42.186;24.340;2023-05-10T12:55:44;29.20;;;20.23;;
27728;SDS011;15126;42.186;24.340;2023-05-10T12:58:11;14.57;;;11.93;;
27728;SDS011;15126;42.186;24.340;2023-05-10T13:00:38;12.63;;;8.33;;
27728;SDS011;15126;42.186;24.340;2023-05-10T13:03:06;9.70;;;8.87;;
27728;SDS011;15126;42.186;24.340;2023-05-10T13:05:33;10.10;;;9.17;;
27728;SDS011;15126;42.186;24.340;2023-05-10T13:08:00;10.43;;;9.53;;
27728;SDS011;15126;42.186;24.340;2023-05-10T13:10:27;9.53;;;8.83;;
27728;SDS011;15126;42.186;24.340;2023-05-10T13:12:55;13.17;;;9.43;;
27728;SDS011;15126;42.186;24.340;2023-05-10T13:15:22;9.80;;;8.87;;
27728;SDS011;15126;42.186;24.340;2023-05-10T13:17:49;15.73;;;9.37;;
27728;SDS011;15126;42.186;24.340;2023-05-10T13:20:17;12.30;;;10.97;;
27728;SDS011;15126;42.186;24.340;2023-05-10T13:22:44;13.67;;;12.13;;
27728;SDS011;15126;42.186;24.340;2023-05-10T13:25:11;14.63;;;12.40;;
27728;SDS011;15126;42.186;24.340;2023-05-10T13:27:38;13.17;;;11.97;;
27728;SDS011;15126;42.186;24.340;2023-05-10T13:30:05;12.30;;;11.10;;
27728;SDS011;15126;42.186;24.340;2023-05-10T13:32:33;11.67;;;10.67;;
27728;SDS011;15126;42.186;24.340;2023-05-10T13:35:00;12.30;;;10.67;;
27728;SDS011;15126;42.186;24.340;2023-05-10T13:37:30;15.80;;;12.40;;
27728;SDS011;15126;42.186;24.340;2023-05-10T13:40:00;15.13;;;12.77;;
27728;SDS011;15126;42.186;24.340;2023-05-10T13:42:29;16.27;;;13.10;;
27728;SDS011;15126;42.186;24.340;2023-05-10T13:44:56;15.03;;;13.07;;
27728;SDS011;15126;42.186;24.340;2023-05-10T13:47:23;18.77;;;13.27;;
27728;SDS011;15126;42.186;24.340;2023-05-10T13:49:50;13.60;;;12.17;;
27728;SDS011;15126;42.186;24.340;2023-05-10T13:52:17;13.80;;;11.70;;
27728;SDS011;15126;42.186;24.340;2023-05-10T13:54:45;12.03;;;10.80;;
27728;SDS011;15126;42.186;24.340;2023-05-10T13:57:12;13.27;;;11.30;;
27728;SDS011;15126;42.186;24.340;2023-05-10T13:59:39;13.00;;;11.77;;
27728;SDS011;15126;42.186;24.340;2023-05-10T14:02:06;13.67;;;12.40;;
27728;SDS011;15126;42.186;24.340;2023-05-10T14:04:32;13.63;;;12.20;;
27728;SDS011;15126;42.186;24.340;2023-05-10T14:07:00;16.87;;;10.73;;
27728;SDS011;15126;42.186;24.340;2023-05-10T14:09:29;15.97;;;12.70;;
27728;SDS011;15126;42.186;24.340;2023-05-10T14:11:57;15.77;;;12.80;;
27728;SDS011;15126;42.186;24.340;2023-05-10T14:14:24;17.17;;;12.07;;
27728;SDS011;15126;42.186;24.340;2023-05-10T14:16:51;16.63;;;12.83;;
27728;SDS011;15126;42.186;24.340;2023-05-10T14:19:17;14.57;;;13.13;;
27728;SDS011;15126;42.186;24.340;2023-05-10T14:21:44;12.57;;;11.43;;
27728;SDS011;15126;42.186;24.340;2023-05-10T14:24:11;15.27;;;13.77;;
27728;SDS011;15126;42.186;24.340;2023-05-10T14:26:38;14.23;;;12.80;;
27728;SDS011;15126;42.186;24.340;2023-05-10T14:29:06;14.73;;;13.10;;
27728;SDS011;15126;42.186;24.340;2023-05-10T14:31:33;21.97;;;19.77;;